Time;durP1;ratioP1;P1;durP2;ratioP2;P2;SDS_P1;SDS_P2;PMS_P1;PMS_P2;Temp;Humidity;BMP_temperature;BMP_pressure;BME280_temperature;BME280_humidity;BME280_pressure;Samples;Min_cycle;Max_cycle;Signal;HPM_P1;HPM_P2
2022/08/21 00:01:47;;;;;;;0.70;0.67;;;19.50;99.90;20.40;96535.00;;;;5079276;28;20220;-71
2022/08/21 00:04:36;;;;;;;1.00;0.90;;;19.40;99.90;19.80;96521.00;;;;5087603;28;20227;-72
2022/08/21 00:07:25;;;;;;;0.83;0.83;;;19.20;99.90;19.30;96529.00;;;;5086937;28;20200;-69
2022/08/21 00:10:16;;;;;;;1.20;1.10;;;18.90;99.90;19.10;96528.00;;;;5089013;28;20725;-73
2022/08/21 00:13:06;;;;;;;0.60;0.60;;;18.60;99.90;20.00;96533.00;;;;5087268;28;20203;-72
2022/08/21 00:15:55;;;;;;;1.57;1.10;;;18.60;99.90;20.10;96522.00;;;;5080152;28;20228;-71
2022/08/21 00:18:44;;;;;;;0.90;0.90;;;18.70;99.90;20.10;96519.00;;;;5081154;28;20203;-71
2022/08/21 00:21:33;;;;;;;0.90;0.90;;;18.70;99.90;20.00;96512.00;;;;5084679;28;20230;-70
2022/08/21 00:24:24;;;;;;;1.13;0.90;;;18.70;99.90;19.50;96499.00;;;;5086465;28;20231;-69
2022/08/21 00:27:14;;;;;;;1.00;0.90;;;18.70;99.90;19.90;96500.00;;;;5078201;28;20195;-71
2022/08/21 00:30:05;;;;;;;0.70;0.70;;;18.60;99.90;19.90;96503.00;;;;5084806;28;20226;-70
2022/08/21 00:32:56;;;;;;;1.63;1.53;;;18.70;99.90;19.70;96497.00;;;;5086354;28;20203;-69
2022/08/21 00:35:45;;;;;;;1.10;1.00;;;18.50;99.90;19.80;96505.00;;;;5085175;28;20598;-72
2022/08/21 00:38:34;;;;;;;1.57;1.30;;;18.50;99.90;19.70;96489.00;;;;5083912;28;20200;-70
2022/08/21 00:41:24;;;;;;;0.97;0.90;;;18.50;99.90;19.60;96490.00;;;;5081040;28;20238;-71
2022/08/21 00:44:16;;;;;;;2.23;1.10;;;18.50;99.90;19.90;96495.00;;;;5084283;28;20230;-72
2022/08/21 00:47:05;;;;;;;1.10;1.00;;;18.50;99.90;20.10;96491.00;;;;5082860;28;20199;-71
2022/08/21 00:49:54;;;;;;;0.73;0.63;;;18.50;99.90;20.20;96494.00;;;;5078448;28;20206;-71
2022/08/21 00:52:43;;;;;;;1.50;1.00;;;18.60;99.90;20.20;96496.00;;;;5085875;28;20312;-71
2022/08/21 00:55:34;;;;;;;1.90;1.20;;;18.70;99.90;20.10;96490.00;;;;5087285;28;20219;-71
2022/08/21 00:58:24;;;;;;;1.20;1.10;;;18.70;99.90;20.40;96488.00;;;;5086862;28;20207;-72
2022/08/21 01:01:14;;;;;;;0.93;0.90;;;18.80;99.90;20.60;96489.00;;;;5087376;28;20684;-72
2022/08/21 01:04:04;;;;;;;1.10;0.80;;;18.90;99.90;20.90;96480.00;;;;5081489;28;20226;-72
2022/08/21 01:06:54;;;;;;;1.47;1.33;;;19.00;99.90;21.00;96477.00;;;;5087933;28;20207;-71
2022/08/21 01:09:44;;;;;;;1.20;1.10;;;19.20;99.90;21.00;96480.00;;;;5083177;28;20214;-70
2022/08/21 01:12:34;;;;;;;1.73;0.90;;;19.20;99.90;21.20;96476.00;;;;5077073;28;20192;-70
2022/08/21 01:15:28;;;;;;;1.20;1.10;;;19.40;99.90;21.20;96472.00;;;;5081917;22;20220;-87
2022/08/21 01:18:19;;;;;;;1.63;1.07;;;19.60;99.90;21.50;96465.00;;;;5075730;28;20200;-88
2022/08/21 01:21:13;;;;;;;1.10;0.90;;;19.70;99.90;21.50;96466.00;;;;5070351;28;20628;-86
2022/08/21 01:24:03;;;;;;;1.47;1.13;;;19.90;99.90;21.50;96463.00;;;;5068650;28;20191;-88
2022/08/21 01:26:52;;;;;;;3.63;1.17;;;19.90;99.90;21.30;96475.00;;;;5068770;28;20200;-87
2022/08/21 01:29:49;;;;;;;1.23;1.13;;;19.90;99.90;21.50;96474.00;;;;5075516;28;20597;-86
2022/08/21 01:32:38;;;;;;;0.93;0.93;;;19.90;99.90;21.80;96473.00;;;;5069910;28;20273;-87
2022/08/21 01:35:27;;;;;;;1.30;1.20;;;20.00;99.00;21.70;96474.00;;;;5073958;28;20203;-86
2022/08/21 01:38:18;;;;;;;2.33;1.07;;;20.10;99.40;21.70;96474.00;;;;5066850;28;20212;-86
2022/08/21 01:41:07;;;;;;;2.37;1.03;;;20.10;99.50;21.90;96470.00;;;;5069080;28;20300;-86
2022/08/21 01:43:56;;;;;;;1.57;1.00;;;20.10;98.50;21.90;96469.00;;;;5069663;28;20556;-85
2022/08/21 01:46:44;;;;;;;1.23;1.13;;;20.20;98.70;21.90;96468.00;;;;5074459;28;20188;-85
2022/08/21 01:49:34;;;;;;;1.97;1.07;;;20.20;98.60;21.90;96458.00;;;;5068294;28;20204;-86
2022/08/21 01:52:23;;;;;;;1.23;1.13;;;20.20;98.90;21.80;96461.00;;;;5080327;28;20219;-86
2022/08/21 01:55:16;;;;;;;0.80;0.80;;;20.20;99.00;21.60;96454.00;;;;5083515;28;20206;-85
2022/08/21 01:58:04;;;;;;;2.30;1.63;;;20.20;98.90;21.80;96463.00;;;;5079753;28;20210;-86
2022/08/21 02:00:54;;;;;;;1.17;0.97;;;20.20;99.00;21.80;96448.00;;;;5070779;28;20207;-86
2022/08/21 02:03:43;;;;;;;0.87;0.87;;;20.20;99.60;21.40;96453.00;;;;5073174;28;20215;-88
2022/08/21 02:06:31;;;;;;;1.20;1.10;;;20.10;99.80;21.60;96444.00;;;;5073354;28;20203;-86
2022/08/21 02:09:21;;;;;;;1.17;0.90;;;20.00;99.80;21.50;96440.00;;;;5073149;28;20673;-86
2022/08/21 02:12:12;;;;;;;0.97;0.90;;;20.00;99.90;21.30;96448.00;;;;5070137;28;20704;-88
2022/08/21 02:15:01;;;;;;;1.57;1.43;;;19.90;99.90;21.40;96435.00;;;;5070917;28;20211;-85
2022/08/21 02:17:53;;;;;;;1.27;1.10;;;19.90;99.90;21.40;96436.00;;;;5076743;28;20199;-85
2022/08/21 02:20:45;;;;;;;1.30;0.90;;;19.90;99.90;21.20;96437.00;;;;5076863;28;20211;-86
2022/08/21 02:23:35;;;;;;;1.17;1.07;;;19.80;99.90;21.30;96433.00;;;;5075171;28;20605;-86
2022/08/21 02:26:24;;;;;;;1.03;1.03;;;19.80;99.60;21.50;96432.00;;;;5075182;28;20207;-87
2022/08/21 02:29:14;;;;;;;1.17;1.00;;;19.80;99.80;21.50;96425.00;;;;5075212;28;20207;-86
2022/08/21 02:32:03;;;;;;;1.40;1.07;;;19.90;99.10;21.50;96429.00;;;;5076700;28;20228;-87
2022/08/21 02:34:52;;;;;;;1.10;1.10;;;19.90;99.00;21.80;96434.00;;;;5075917;28;20688;-86
2022/08/21 02:37:47;;;;;;;1.37;1.27;;;20.00;98.30;21.70;96430.00;;;;5076069;28;20210;-88
2022/08/21 02:40:40;;;;;;;3.80;1.30;;;20.10;98.40;21.60;96426.00;;;;5072768;28;20587;-86
2022/08/21 02:43:29;;;;;;;1.57;1.07;;;20.20;97.80;21.90;96424.00;;;;5073063;28;20670;-86
2022/08/21 02:46:21;;;;;;;1.73;1.10;;;20.20;97.60;22.00;96413.00;;;;5076229;28;20215;-86
2022/08/21 02:49:10;;;;;;;1.70;1.40;;;20.30;97.70;21.90;96418.00;;;;5074398;28;20196;-86
2022/08/21 02:51:59;;;;;;;1.30;1.20;;;20.30;98.00;21.90;96427.00;;;;5068948;28;20224;-87
2022/08/21 02:54:48;;;;;;;1.43;1.10;;;20.30;98.60;21.70;96426.00;;;;5065212;28;20200;-86
2022/08/21 02:57:37;;;;;;;1.33;1.23;;;20.30;98.20;21.70;96431.00;;;;5073568;28;20215;-87
2022/08/21 03:00:29;;;;;;;0.73;0.73;;;20.20;98.50;21.50;96416.00;;;;5072624;28;20196;-88
2022/08/21 03:03:21;;;;;;;1.53;1.10;;;20.20;97.20;21.80;96424.00;;;;5074988;28;20239;-86
2022/08/21 03:06:12;;;;;;;2.07;1.10;;;20.20;97.70;21.50;96417.00;;;;5076392;28;20223;-88
2022/08/21 03:09:01;;;;;;;1.00;1.00;;;20.30;97.90;21.10;96409.00;;;;5069524;28;20200;-87
2022/08/21 03:11:50;;;;;;;1.17;0.97;;;20.20;98.90;21.30;96417.00;;;;5073523;28;20224;-87
2022/08/21 03:14:39;;;;;;;1.47;1.20;;;20.10;99.40;21.20;96417.00;;;;5069184;28;20560;-85
2022/08/21 03:17:28;;;;;;;1.40;1.30;;;20.00;99.80;21.40;96421.00;;;;5069383;28;20204;-87
2022/08/21 03:20:23;;;;;;;1.30;1.20;;;19.90;99.30;21.20;96420.00;;;;5077037;28;20701;-86
2022/08/21 03:23:12;;;;;;;1.53;1.43;;;19.80;99.40;21.20;96421.00;;;;5076954;28;20231;-87
2022/08/21 03:26:01;;;;;;;1.20;1.10;;;19.80;99.30;21.20;96418.00;;;;5077836;28;20208;-87
2022/08/21 03:28:50;;;;;;;1.10;1.10;;;19.70;99.70;21.00;96422.00;;;;5075056;28;20207;-87
2022/08/21 03:31:39;;;;;;;1.50;1.40;;;19.70;99.80;20.90;96423.00;;;;5068924;28;20716;-86
2022/08/21 03:34:28;;;;;;;3.13;1.30;;;19.60;99.80;21.10;96420.00;;;;5075490;28;20604;-86
2022/08/21 03:37:19;;;;;;;1.10;1.00;;;19.60;99.30;21.10;96420.00;;;;5076146;28;20208;-86
2022/08/21 03:40:10;;;;;;;1.70;1.17;;;19.60;98.90;21.00;96414.00;;;;5057402;28;20230;-86
2022/08/21 03:42:59;;;;;;;1.47;1.37;;;19.60;99.20;21.10;96416.00;;;;5072188;28;20288;-88
2022/08/21 03:45:48;;;;;;;2.67;1.27;;;19.60;99.10;20.90;96428.00;;;;5071885;28;20223;-88
2022/08/21 03:48:38;;;;;;;1.13;1.00;;;19.60;99.70;21.00;96422.00;;;;5076387;28;20207;-87
2022/08/21 03:51:27;;;;;;;1.40;1.30;;;19.60;99.30;20.80;96410.00;;;;5076928;28;20700;-86
2022/08/21 03:54:18;;;;;;;1.43;1.33;;;19.50;99.90;20.50;96418.00;;;;5068354;28;20211;-88
2022/08/21 03:57:07;;;;;;;1.50;1.40;;;19.40;99.90;20.10;96418.00;;;;5073097;28;20200;-87
2022/08/21 03:59:56;;;;;;;2.60;1.27;;;19.20;99.90;20.00;96415.00;;;;5076339;28;20211;-88
2022/08/21 04:02:45;;;;;;;2.47;1.30;;;19.00;99.90;20.00;96415.00;;;;5075052;28;20231;-87
2022/08/21 04:05:36;;;;;;;1.23;1.13;;;18.90;99.90;19.80;96421.00;;;;5075168;28;20853;-86
2022/08/21 04:08:25;;;;;;;1.73;1.20;;;18.80;99.90;19.60;96423.00;;;;5094087;22;20235;-72
2022/08/21 04:11:16;;;;;;;1.50;1.40;;;18.70;99.90;19.60;96421.00;;;;5078115;28;20749;-72
2022/08/21 04:14:07;;;;;;;1.53;1.43;;;18.50;99.90;19.20;96428.00;;;;5080278;28;20207;-72
2022/08/21 04:16:57;;;;;;;3.60;1.57;;;18.40;99.90;19.60;96427.00;;;;5066284;28;20200;-73
2022/08/21 04:19:46;;;;;;;1.47;1.37;;;18.30;99.90;19.70;96434.00;;;;5068214;28;20192;-72
2022/08/21 04:22:38;;;;;;;1.90;1.10;;;18.30;99.90;19.40;96432.00;;;;5050948;28;20220;-72
2022/08/21 04:25:26;;;;;;;1.50;1.40;;;18.20;99.90;19.00;96428.00;;;;5067422;28;20216;-71
2022/08/21 04:28:16;;;;;;;1.80;1.70;;;18.10;99.90;19.40;96435.00;;;;5070305;28;20732;-72
2022/08/21 04:31:06;;;;;;;1.37;1.27;;;18.10;99.90;19.50;96429.00;;;;5073991;28;20803;-72
2022/08/21 04:33:56;;;;;;;1.37;1.00;;;18.00;99.90;19.20;96440.00;;;;5088772;28;20682;-70
2022/08/21 04:36:45;;;;;;;1.70;1.60;;;18.00;99.90;18.90;96434.00;;;;5077399;28;20191;-72
2022/08/21 04:39:34;;;;;;;1.90;1.70;;;18.00;99.90;19.20;96440.00;;;;5089983;28;20230;-72
2022/08/21 04:42:23;;;;;;;3.20;2.07;;;18.00;99.90;19.00;96438.00;;;;5084003;28;20192;-72
2022/08/21 04:45:21;;;;;;;1.60;1.50;;;17.90;99.90;18.80;96440.00;;;;5092145;28;20573;-72
2022/08/21 04:48:13;;;;;;;1.60;1.50;;;17.80;99.90;19.00;96445.00;;;;5094708;28;20195;-72
2022/08/21 04:51:08;;;;;;;1.70;1.60;;;17.70;99.90;19.00;96443.00;;;;5088682;28;20804;-71
2022/08/21 04:54:01;;;;;;;3.07;1.50;;;17.70;99.90;19.10;96449.00;;;;5068274;28;20191;-72
2022/08/21 04:56:54;;;;;;;1.40;1.30;;;17.70;99.90;19.40;96439.00;;;;5087169;28;20203;-72
2022/08/21 04:59:49;;;;;;;1.63;1.50;;;17.80;99.90;19.50;96454.00;;;;5085990;28;20195;-72
2022/08/21 05:02:39;;;;;;;1.17;1.07;;;17.90;99.90;19.40;96451.00;;;;5067614;28;20202;-73
2022/08/21 05:05:29;;;;;;;1.60;1.30;;;18.00;99.90;19.60;96462.00;;;;5069055;28;20211;-72
2022/08/21 05:08:23;;;;;;;1.73;1.63;;;18.00;99.90;19.70;96457.00;;;;5083834;28;20218;-72
2022/08/21 05:11:11;;;;;;;1.60;1.50;;;18.10;99.90;19.80;96450.00;;;;5088560;28;20195;-72
2022/08/21 05:14:00;;;;;;;1.73;1.63;;;18.10;99.90;19.80;96456.00;;;;5068184;28;20271;-72
2022/08/21 05:16:49;;;;;;;1.70;1.60;;;18.20;99.90;19.90;96450.00;;;;5073483;28;20204;-72
2022/08/21 05:19:40;;;;;;;3.83;1.40;;;18.30;99.90;19.90;96436.00;;;;5070254;28;20199;-72
2022/08/21 05:22:28;;;;;;;1.33;1.23;;;18.40;99.90;20.50;96452.00;;;;5076836;28;20237;-71
2022/08/21 05:25:18;;;;;;;4.90;1.07;;;18.50;99.90;20.70;96452.00;;;;5088972;28;20207;-72
2022/08/21 05:28:07;;;;;;;1.67;1.57;;;18.70;99.90;20.80;96456.00;;;;5085096;28;20683;-72
2022/08/21 05:30:56;;;;;;;1.43;1.00;;;18.90;99.90;21.10;96460.00;;;;5102011;28;20190;-72
2022/08/21 05:33:44;;;;;;;1.87;0.97;;;19.10;99.90;21.10;96459.00;;;;5104158;28;20195;-72
2022/08/21 05:36:35;;;;;;;1.40;1.30;;;19.20;99.90;21.30;96469.00;;;;5069750;28;20200;-72
2022/08/21 05:39:23;;;;;;;0.90;0.90;;;19.30;99.90;21.50;96465.00;;;;5080062;28;20195;-72
2022/08/21 05:42:12;;;;;;;1.43;1.30;;;19.50;99.90;21.60;96469.00;;;;5077452;28;20696;-73
2022/08/21 05:45:01;;;;;;;1.30;1.10;;;19.60;99.90;21.70;96477.00;;;;5077035;28;20227;-72
2022/08/21 05:47:50;;;;;;;1.30;1.20;;;19.80;99.90;21.80;96484.00;;;;5069265;28;20200;-72
2022/08/21 05:50:39;;;;;;;1.43;1.30;;;19.90;99.90;22.00;96483.00;;;;5082436;28;20195;-72
2022/08/21 05:53:29;;;;;;;2.60;1.30;;;20.00;99.90;22.10;96472.00;;;;5087615;28;20214;-72
2022/08/21 05:56:18;;;;;;;1.40;1.10;;;20.10;99.90;22.20;96478.00;;;;5088144;28;20219;-72
2022/08/21 05:59:07;;;;;;;2.20;1.40;;;20.20;99.90;22.30;96489.00;;;;5069445;28;20192;-72
2022/08/21 06:01:56;;;;;;;1.60;1.50;;;20.30;99.90;22.40;96480.00;;;;5081145;28;20222;-72
2022/08/21 06:04:46;;;;;;;1.30;1.20;;;20.40;99.90;22.40;96479.00;;;;5077100;28;20293;-72
2022/08/21 06:07:34;;;;;;;1.90;1.40;;;20.50;99.90;22.40;96483.00;;;;5087973;28;20206;-72
2022/08/21 06:10:25;;;;;;;1.33;1.23;;;20.60;99.90;22.40;96480.00;;;;5077474;28;20208;-72
2022/08/21 06:13:14;;;;;;;1.60;1.50;;;20.70;99.90;22.50;96490.00;;;;5079916;28;20195;-72
2022/08/21 06:16:08;;;;;;;1.30;1.20;;;20.70;99.90;22.60;96495.00;;;;5079744;28;20225;-72
2022/08/21 06:18:57;;;;;;;1.40;1.30;;;20.80;99.90;22.60;96492.00;;;;5068713;28;20202;-72
2022/08/21 06:21:49;;;;;;;2.53;1.50;;;20.80;99.90;22.70;96506.00;;;;5067141;28;20203;-73
2022/08/21 06:24:38;;;;;;;2.47;0.90;;;20.90;99.90;22.70;96509.00;;;;5080304;28;20246;-72
2022/08/21 06:27:29;;;;;;;3.20;1.33;;;20.90;99.90;22.70;96520.00;;;;5073419;28;20207;-72
2022/08/21 06:30:18;;;;;;;1.10;1.03;;;21.00;99.90;22.70;96519.00;;;;5079995;28;20203;-72
2022/08/21 06:33:07;;;;;;;2.83;1.50;;;21.00;99.90;22.70;96528.00;;;;5078795;28;20199;-72
2022/08/21 06:35:56;;;;;;;4.23;1.20;;;21.00;99.90;22.70;96528.00;;;;5076821;28;20671;-73
2022/08/21 06:38:45;;;;;;;1.83;1.13;;;21.00;99.90;22.70;96527.00;;;;5071348;28;20216;-72
2022/08/21 06:41:35;;;;;;;2.73;1.37;;;21.00;99.90;22.60;96520.00;;;;5080177;28;20200;-72
2022/08/21 06:44:25;;;;;;;1.00;0.90;;;21.00;99.90;22.60;96519.00;;;;5077931;28;20219;-72
2022/08/21 06:47:14;;;;;;;1.10;1.00;;;20.90;99.90;22.60;96521.00;;;;5076111;28;20580;-72
2022/08/21 06:50:07;;;;;;;1.83;1.27;;;20.90;99.90;22.50;96517.00;;;;5088070;28;20582;-72
2022/08/21 06:53:01;;;;;;;1.30;1.20;;;20.90;99.90;22.40;96520.00;;;;5072268;28;20667;-72
2022/08/21 06:55:50;;;;;;;2.30;1.13;;;20.90;99.90;22.50;96528.00;;;;5072587;28;20223;-71
2022/08/21 06:58:39;;;;;;;1.10;1.00;;;20.90;99.90;22.50;96525.00;;;;5086251;28;20210;-72
2022/08/21 07:01:29;;;;;;;0.90;0.90;;;20.80;99.90;22.50;96529.00;;;;5087829;28;20195;-72
2022/08/21 07:04:19;;;;;;;1.07;1.00;;;20.80;99.90;22.60;96518.00;;;;5084633;28;20230;-72
2022/08/21 07:07:08;;;;;;;1.03;1.03;;;20.80;99.90;22.60;96517.00;;;;5082924;28;20222;-72
2022/08/21 07:09:57;;;;;;;0.80;0.80;;;20.90;99.90;22.60;96521.00;;;;5091048;28;20198;-72
2022/08/21 07:12:46;;;;;;;1.67;1.27;;;20.90;99.90;22.70;96534.00;;;;5076644;28;20195;-72
2022/08/21 07:15:35;;;;;;;2.43;1.23;;;20.90;99.90;22.70;96536.00;;;;5105597;22;20254;-71
2022/08/21 07:18:25;;;;;;;1.03;1.00;;;21.00;99.90;22.80;96533.00;;;;5076919;28;20203;-71
2022/08/21 07:21:14;;;;;;;1.10;1.00;;;21.00;99.90;22.80;96540.00;;;;5071753;28;20192;-71
2022/08/21 07:24:03;;;;;;;0.90;0.90;;;21.00;99.90;22.70;96545.00;;;;5073885;28;20588;-71
2022/08/21 07:26:52;;;;;;;0.90;0.90;;;21.00;99.90;22.60;96549.00;;;;5090315;28;20583;-70
2022/08/21 07:29:41;;;;;;;1.30;1.20;;;21.00;99.90;22.80;96542.00;;;;5078877;28;20199;-70
2022/08/21 07:32:30;;;;;;;3.90;1.30;;;21.00;99.90;22.80;96539.00;;;;5070329;28;21004;-71
2022/08/21 07:35:21;;;;;;;1.80;1.13;;;21.10;99.90;22.80;96538.00;;;;5088439;28;20223;-70
2022/08/21 07:38:10;;;;;;;1.27;1.17;;;21.10;99.90;22.80;96540.00;;;;5074425;28;20693;-70
2022/08/21 07:41:02;;;;;;;1.10;1.00;;;21.10;99.90;22.80;96541.00;;;;5071396;28;20607;-72
2022/08/21 07:43:51;;;;;;;1.10;1.00;;;21.10;99.90;22.80;96549.00;;;;5081532;28;20196;-71
2022/08/21 07:46:40;;;;;;;1.03;1.03;;;21.10;99.90;22.70;96538.00;;;;5071642;28;20219;-70
2022/08/21 07:49:28;;;;;;;0.87;0.87;;;21.10;99.90;22.80;96540.00;;;;5070049;28;20211;-70
2022/08/21 07:52:19;;;;;;;1.53;1.20;;;21.10;99.90;22.80;96538.00;;;;5067796;28;20219;-72
2022/08/21 07:55:12;;;;;;;1.20;0.90;;;21.10;99.90;22.80;96540.00;;;;5080034;28;20243;-71
2022/08/21 07:58:01;;;;;;;1.67;1.10;;;21.10;99.90;22.70;96532.00;;;;5090939;28;20203;-71
2022/08/21 08:00:50;;;;;;;1.27;1.17;;;21.10;99.90;22.80;96539.00;;;;5089848;28;20192;-71
2022/08/21 08:03:39;;;;;;;1.43;1.20;;;21.10;99.90;22.90;96537.00;;;;5090449;28;20210;-71
2022/08/21 08:06:28;;;;;;;1.10;1.00;;;21.20;99.90;23.00;96527.00;;;;5069235;28;20412;-70
2022/08/21 08:09:19;;;;;;;1.53;0.93;;;21.20;99.90;23.10;96519.00;;;;5078289;28;20286;-71
2022/08/21 08:12:08;;;;;;;0.97;0.83;;;21.30;99.90;23.20;96521.00;;;;5069485;28;20196;-71
2022/08/21 08:14:57;;;;;;;1.77;0.80;;;21.30;99.90;23.30;96528.00;;;;5078683;28;20593;-70
2022/08/21 08:17:48;;;;;;;1.23;1.00;;;21.40;99.90;23.40;96535.00;;;;5090346;28;20203;-71
2022/08/21 08:20:36;;;;;;;1.40;1.30;;;21.50;99.90;23.60;96533.00;;;;5073507;28;20234;-71
2022/08/21 08:23:26;;;;;;;0.90;0.87;;;21.60;99.90;23.60;96537.00;;;;5085869;28;20223;-72
2022/08/21 08:26:16;;;;;;;1.40;0.90;;;21.70;99.90;23.80;96521.00;;;;5089841;28;20231;-71
2022/08/21 08:29:05;;;;;;;2.20;1.17;;;21.80;99.90;23.80;96522.00;;;;5070840;28;20192;-72
2022/08/21 08:31:54;;;;;;;2.87;1.70;;;21.90;99.90;23.90;96527.00;;;;5069693;28;20211;-72
2022/08/21 08:34:43;;;;;;;1.93;1.33;;;21.90;99.90;23.80;96526.00;;;;5082248;28;20188;-70
2022/08/21 08:37:33;;;;;;;2.23;2.03;;;22.00;99.90;23.80;96525.00;;;;5077087;28;20204;-71
2022/08/21 08:40:33;;;;;;;2.10;1.70;;;22.00;99.90;23.80;96539.00;;;;5069593;28;20195;-71
2022/08/21 08:43:23;;;;;;;1.67;1.57;;;22.10;99.90;23.70;96533.00;;;;5082791;28;20199;-71
2022/08/21 08:46:16;;;;;;;1.70;1.60;;;22.10;99.90;23.80;96534.00;;;;5085653;28;20230;-71
2022/08/21 08:49:12;;;;;;;1.63;1.53;;;22.10;99.90;23.90;96526.00;;;;5089721;28;20206;-72
2022/08/21 08:52:04;;;;;;;0.90;0.90;;;22.10;99.90;24.00;96520.00;;;;5088083;28;20199;-70
2022/08/21 08:55:03;;;;;;;1.10;1.00;;;22.10;99.90;24.10;96525.00;;;;5090304;28;20223;-71
2022/08/21 08:57:53;;;;;;;0.90;0.90;;;22.20;99.90;24.20;96541.00;;;;5089618;28;20191;-72
2022/08/21 09:00:43;;;;;;;1.17;1.10;;;22.30;99.90;24.10;96530.00;;;;5073942;28;20200;-72
2022/08/21 09:03:32;;;;;;;0.93;0.90;;;22.30;99.90;24.20;96528.00;;;;5068517;28;20203;-72
2022/08/21 09:06:38;;;;;;;1.20;1.10;;;22.40;99.90;24.40;96536.00;;;;5087032;28;20231;-72
2022/08/21 09:09:44;;;;;;;0.70;0.70;;;22.50;99.90;24.50;96543.00;;;;5068458;28;20203;-71
2022/08/21 09:12:48;;;;;;;1.00;0.90;;;22.60;99.90;24.70;96528.00;;;;5076123;28;20199;-72
2022/08/21 09:15:51;;;;;;;1.07;0.90;;;22.70;99.90;24.60;96536.00;;;;5087846;28;20238;-72
2022/08/21 09:18:53;;;;;;;1.10;1.00;;;22.80;99.90;24.60;96540.00;;;;5088712;28;20665;-71
2022/08/21 09:21:51;;;;;;;1.20;1.10;;;22.80;99.90;24.60;96525.00;;;;5070212;28;20206;-71
2022/08/21 09:24:54;;;;;;;1.47;1.37;;;22.80;99.90;24.70;96528.00;;;;5089122;28;20202;-71
2022/08/21 09:27:42;;;;;;;0.63;0.63;;;22.80;99.90;24.60;96521.00;;;;5088698;28;20214;-72
2022/08/21 09:30:33;;;;;;;1.50;0.80;;;22.90;99.90;24.60;96519.00;;;;5074559;28;20204;-71
2022/08/21 09:33:23;;;;;;;0.80;0.80;;;22.90;99.90;24.80;96515.00;;;;5069122;28;20211;-72
2022/08/21 09:36:12;;;;;;;1.10;1.00;;;22.90;99.90;25.00;96504.00;;;;5082739;28;20226;-72
2022/08/21 09:39:01;;;;;;;1.10;0.80;;;23.00;99.90;25.30;96506.00;;;;5069418;28;20215;-71
2022/08/21 09:41:57;;;;;;;1.07;1.07;;;23.20;99.90;25.60;96498.00;;;;5070199;28;20204;-70
2022/08/21 09:44:46;;;;;;;1.13;0.93;;;23.40;99.90;25.70;96492.00;;;;5070490;28;20199;-71
2022/08/21 09:47:37;;;;;;;0.70;0.70;;;23.50;99.90;26.00;96496.00;;;;5088901;28;20214;-72
2022/08/21 09:50:28;;;;;;;1.00;0.90;;;23.70;99.90;26.10;96494.00;;;;5088681;28;20203;-71
2022/08/21 09:53:21;;;;;;;1.03;0.90;;;23.90;99.90;25.60;96497.00;;;;5086591;28;20674;-71
2022/08/21 09:59:32;;;;;;;0.70;0.60;;;24.00;99.90;25.70;96499.00;;;;5088413;28;20206;-70
2022/08/21 10:02:30;;;;;;;0.90;0.90;;;24.00;99.90;25.80;96477.00;;;;5087982;28;20195;-71
2022/08/21 10:05:23;;;;;;;1.00;1.00;;;24.00;99.90;26.10;96492.00;;;;5088271;28;20219;-70
2022/08/21 10:08:22;;;;;;;0.80;0.80;;;24.00;99.90;26.00;96486.00;;;;5086040;28;20199;-70
2022/08/21 10:11:15;;;;;;;0.60;0.60;;;24.10;99.90;25.90;96475.00;;;;5066944;28;20197;-72
2022/08/21 10:14:28;;;;;;;0.90;0.80;;;24.10;99.90;26.10;96489.00;;;;5067786;28;20741;-72
2022/08/21 10:17:25;;;;;;;0.70;0.70;;;24.10;99.90;26.20;96483.00;;;;5056719;28;20204;-71
2022/08/21 10:20:21;;;;;;;1.83;0.87;;;24.20;99.90;26.40;96478.00;;;;5080962;28;20665;-72
2022/08/21 10:23:33;;;;;;;1.43;0.83;;;24.30;99.90;26.50;96483.00;;;;5084885;28;20211;-71
2022/08/21 10:26:35;;;;;;;0.93;0.93;;;24.40;99.90;26.30;96476.00;;;;5087911;28;20229;-71
2022/08/21 10:29:44;;;;;;;1.27;1.17;;;24.50;99.30;26.20;96471.00;;;;5074005;28;20580;-71
2022/08/21 10:33:07;;;;;;;0.93;0.90;;;24.40;99.00;26.30;96469.00;;;;5067444;28;20201;-71
2022/08/21 10:36:04;;;;;;;0.80;0.73;;;24.40;99.60;26.30;96468.00;;;;5074515;28;20219;-72
2022/08/21 10:39:11;;;;;;;1.20;0.80;;;24.50;99.60;26.30;96468.00;;;;5092295;28;20193;-71
2022/08/21 10:42:29;;;;;;;0.60;0.60;;;24.50;99.10;25.80;96470.00;;;;5080556;28;20194;-72
2022/08/21 10:45:37;;;;;;;2.53;0.93;;;24.40;98.10;26.00;96473.00;;;;5073726;28;20227;-70
2022/08/21 10:48:33;;;;;;;1.10;0.93;;;24.30;98.50;25.70;96459.00;;;;5091332;28;20215;-71
2022/08/21 10:51:31;;;;;;;1.23;1.00;;;24.30;98.20;25.60;96465.00;;;;5091395;28;20203;-71
2022/08/21 10:54:33;;;;;;;0.70;0.70;;;24.20;97.50;26.20;96467.00;;;;5071503;28;20203;-70
2022/08/21 10:57:33;;;;;;;0.70;0.50;;;24.20;97.40;26.60;96466.00;;;;5071276;28;20199;-70
2022/08/21 11:00:27;;;;;;;0.70;0.70;;;24.40;97.30;26.80;96450.00;;;;5071213;28;20199;-72
2022/08/21 11:03:27;;;;;;;0.60;0.60;;;24.60;97.60;27.10;96452.00;;;;5069273;28;20217;-72
2022/08/21 11:06:23;;;;;;;0.47;0.40;;;24.80;97.70;26.50;96450.00;;;;5084639;28;20219;-71
2022/08/21 11:09:17;;;;;;;0.40;0.40;;;25.00;94.70;27.40;96444.00;;;;5088386;28;20192;-71
2022/08/21 11:12:18;;;;;;;0.30;0.30;;;25.10;94.80;26.90;96443.00;;;;5069724;28;20197;-71
2022/08/21 11:15:25;;;;;;;1.73;0.40;;;25.30;93.80;27.70;96447.00;;;;5075435;28;20243;-73
2022/08/21 11:18:23;;;;;;;0.40;0.40;;;25.50;94.10;27.50;96446.00;;;;5091397;28;20220;-71
2022/08/21 11:21:31;;;;;;;0.30;0.30;;;25.60;92.90;27.60;96446.00;;;;5071683;28;20556;-73
2022/08/21 11:24:36;;;;;;;0.47;0.30;;;25.70;92.90;26.80;96435.00;;;;5069408;28;20201;-71
2022/08/21 11:27:33;;;;;;;0.40;0.30;;;25.60;92.10;26.90;96451.00;;;;5090263;28;20217;-71
2022/08/21 11:30:24;;;;;;;0.47;0.43;;;25.40;92.60;26.70;96453.00;;;;5070613;28;20201;-71
2022/08/21 11:33:31;;;;;;;0.30;0.20;;;25.20;92.70;26.20;96454.00;;;;5069285;28;20201;-72
2022/08/21 11:36:31;;;;;;;0.33;0.30;;;25.10;92.50;25.90;96442.00;;;;5081389;28;20220;-72
2022/08/21 11:39:31;;;;;;;0.70;0.23;;;24.80;92.50;25.70;96451.00;;;;5070359;28;20237;-70
2022/08/21 11:42:31;;;;;;;0.20;0.20;;;24.70;92.20;25.50;96452.00;;;;5075802;28;20584;-69
2022/08/21 11:45:36;;;;;;;0.40;0.30;;;24.50;92.30;25.70;96456.00;;;;5080918;28;20218;-71
2022/08/21 11:48:41;;;;;;;0.30;0.30;;;24.40;92.20;26.00;96462.00;;;;5088650;28;20195;-70
2022/08/21 11:51:42;;;;;;;0.30;0.30;;;24.40;92.70;26.10;96448.00;;;;5090152;28;20195;-71
2022/08/21 11:54:38;;;;;;;0.20;0.20;;;24.40;92.80;26.00;96447.00;;;;5087656;28;20198;-70
2022/08/21 11:57:35;;;;;;;0.37;0.30;;;24.40;92.40;26.30;96427.00;;;;5089996;28;20192;-72
2022/08/21 12:00:28;;;;;;;0.70;0.30;;;24.60;92.70;26.20;96439.00;;;;5077714;28;20207;-73
2022/08/21 12:03:30;;;;;;;0.23;0.23;;;24.70;92.60;27.00;96436.00;;;;5069709;28;20207;-72
2022/08/21 12:06:31;;;;;;;0.60;0.50;;;24.80;93.20;27.40;96443.00;;;;5082680;28;20231;-72
2022/08/21 12:09:36;;;;;;;0.37;0.37;;;25.10;93.60;26.20;96438.00;;;;5070985;28;20197;-75
2022/08/21 12:12:29;;;;;;;0.20;0.20;;;25.20;91.60;26.40;96434.00;;;;5075019;28;20199;-74
2022/08/21 12:15:29;;;;;;;0.30;0.30;;;25.10;91.40;27.20;96447.00;;;;5082201;28;20235;-72
2022/08/21 12:18:30;;;;;;;0.37;0.30;;;25.20;92.20;27.20;96438.00;;;;5089998;28;20199;-73
2022/08/21 12:21:24;;;;;;;0.50;0.30;;;25.20;91.50;26.80;96441.00;;;;5069976;28;20202;-73
2022/08/21 12:24:21;;;;;;;0.43;0.37;;;25.30;91.50;26.00;96446.00;;;;5069661;28;20192;-72
2022/08/21 12:27:27;;;;;;;0.20;0.20;;;25.10;91.30;26.20;96452.00;;;;5088936;28;20219;-69
2022/08/21 12:30:35;;;;;;;0.43;0.30;;;25.00;91.20;26.20;96436.00;;;;5076711;28;20204;-71
2022/08/21 12:33:28;;;;;;;0.60;0.30;;;24.80;91.40;26.50;96446.00;;;;5070341;28;20710;-70
2022/08/21 12:36:22;;;;;;;0.63;0.50;;;24.70;91.60;26.40;96443.00;;;;5078474;28;20729;-71
2022/08/21 12:39:19;;;;;;;0.43;0.30;;;24.80;91.80;26.70;96456.00;;;;5070853;28;20188;-72
2022/08/21 12:42:17;;;;;;;0.30;0.30;;;24.80;91.50;25.70;96447.00;;;;5073515;28;20275;-70
2022/08/21 12:45:27;;;;;;;0.37;0.37;;;24.80;91.30;25.80;96442.00;;;;5071865;28;20698;-71
2022/08/21 12:48:23;;;;;;;0.30;0.30;;;24.50;91.80;26.00;96451.00;;;;5087863;28;20228;-72
2022/08/21 12:51:15;;;;;;;0.43;0.40;;;24.40;91.60;25.60;96444.00;;;;5090044;28;20608;-72